sensor_id;sensor_type;location;lat;lon;timestamp;P1;durP1;ratioP1;P2;durP2;ratioP2
28834;SDS011;15969;51.536;11.884;2023-04-25T00:00:24;3.60;;;3.30;;
28834;SDS011;15969;51.536;11.884;2023-04-25T00:02:50;4.10;;;3.27;;
28834;SDS011;15969;51.536;11.884;2023-04-25T00:05:16;3.10;;;2.90;;
28834;SDS011;15969;51.536;11.884;2023-04-25T00:07:42;4.40;;;2.90;;
28834;SDS011;15969;51.536;11.884;2023-04-25T00:10:08;3.40;;;3.10;;
28834;SDS011;15969;51.536;11.884;2023-04-25T00:12:35;3.23;;;2.93;;
28834;SDS011;15969;51.536;11.884;2023-04-25T00:15:01;3.00;;;2.80;;
28834;SDS011;15969;51.536;11.884;2023-04-25T00:17:27;3.57;;;2.70;;
28834;SDS011;15969;51.536;11.884;2023-04-25T00:19:53;3.50;;;3.20;;
28834;SDS011;15969;51.536;11.884;2023-04-25T00:22:19;3.10;;;2.90;;
28834;SDS011;15969;51.536;11.884;2023-04-25T00:24:45;4.03;;;3.30;;
28834;SDS011;15969;51.536;11.884;2023-04-25T00:27:11;3.20;;;2.90;;
28834;SDS011;15969;51.536;11.884;2023-04-25T00:29:37;3.60;;;2.73;;
28834;SDS011;15969;51.536;11.884;2023-04-25T00:32:02;3.27;;;2.97;;
28834;SDS011;15969;51.536;11.884;2023-04-25T00:34:28;3.40;;;3.10;;
28834;SDS011;15969;51.536;11.884;2023-04-25T00:36:54;3.47;;;3.17;;
28834;SDS011;15969;51.536;11.884;2023-04-25T00:39:19;3.83;;;3.43;;
28834;SDS011;15969;51.536;11.884;2023-04-25T00:41:45;3.47;;;3.17;;
28834;SDS011;15969;51.536;11.884;2023-04-25T00:44:11;2.83;;;2.63;;
28834;SDS011;15969;51.536;11.884;2023-04-25T00:46:38;3.73;;;3.07;;
28834;SDS011;15969;51.536;11.884;2023-04-25T00:49:04;3.83;;;3.47;;
28834;SDS011;15969;51.536;11.884;2023-04-25T00:51:31;3.50;;;3.20;;
28834;SDS011;15969;51.536;11.884;2023-04-25T00:53:58;5.80;;;3.73;;
28834;SDS011;15969;51.536;11.884;2023-04-25T00:56:24;4.43;;;3.53;;
28834;SDS011;15969;51.536;11.884;2023-04-25T00:58:50;4.10;;;3.70;;
28834;SDS011;15969;51.536;11.884;2023-04-25T01:01:21;5.40;;;3.80;;
28834;SDS011;15969;51.536;11.884;2023-04-25T01:03:47;4.10;;;3.70;;
28834;SDS011;15969;51.536;11.884;2023-04-25T01:06:14;3.90;;;3.60;;
28834;SDS011;15969;51.536;11.884;2023-04-25T01:08:41;4.57;;;3.97;;
28834;SDS011;15969;51.536;11.884;2023-04-25T01:11:07;6.27;;;4.00;;
28834;SDS011;15969;51.536;11.884;2023-04-25T01:13:33;5.63;;;5.03;;
28834;SDS011;15969;51.536;11.884;2023-04-25T01:16:00;7.13;;;5.90;;
28834;SDS011;15969;51.536;11.884;2023-04-25T01:18:27;6.57;;;5.60;;
28834;SDS011;15969;51.536;11.884;2023-04-25T01:20:53;5.27;;;4.70;;
28834;SDS011;15969;51.536;11.884;2023-04-25T01:23:20;4.80;;;4.40;;
28834;SDS011;15969;51.536;11.884;2023-04-25T01:25:47;6.37;;;5.30;;
28834;SDS011;15969;51.536;11.884;2023-04-25T01:28:14;6.13;;;5.37;;
28834;SDS011;15969;51.536;11.884;2023-04-25T01:30:40;9.47;;;5.33;;
28834;SDS011;15969;51.536;11.884;2023-04-25T01:33:07;6.37;;;5.63;;
28834;SDS011;15969;51.536;11.884;2023-04-25T01:35:34;7.83;;;6.30;;
28834;SDS011;15969;51.536;11.884;2023-04-25T01:38:00;8.87;;;6.20;;
28834;SDS011;15969;51.536;11.884;2023-04-25T01:40:25;7.17;;;5.67;;
28834;SDS011;15969;51.536;11.884;2023-04-25T01:42:52;9.50;;;5.70;;
28834;SDS011;15969;51.536;11.884;2023-04-25T01:45:18;7.00;;;5.47;;
28834;SDS011;15969;51.536;11.884;2023-04-25T01:47:44;5.53;;;5.03;;
28834;SDS011;15969;51.536;11.884;2023-04-25T01:50:15;6.03;;;5.40;;
28834;SDS011;15969;51.536;11.884;2023-04-25T01:52:43;5.83;;;4.93;;
28834;SDS011;15969;51.536;11.884;2023-04-25T01:55:09;5.63;;;5.00;;
28834;SDS011;15969;51.536;11.884;2023-04-25T01:57:35;6.13;;;5.30;;
28834;SDS011;15969;51.536;11.884;2023-04-25T02:00:02;6.03;;;4.90;;
28834;SDS011;15969;51.536;11.884;2023-04-25T02:02:30;6.97;;;4.63;;
28834;SDS011;15969;51.536;11.884;2023-04-25T02:04:55;5.20;;;4.70;;
28834;SDS011;15969;51.536;11.884;2023-04-25T02:07:21;6.03;;;5.33;;
28834;SDS011;15969;51.536;11.884;2023-04-25T02:09:47;8.60;;;5.87;;
28834;SDS011;15969;51.536;11.884;2023-04-25T02:12:13;6.87;;;5.40;;
28834;SDS011;15969;51.536;11.884;2023-04-25T02:14:38;6.63;;;5.50;;
28834;SDS011;15969;51.536;11.884;2023-04-25T02:17:04;6.47;;;5.10;;
28834;SDS011;15969;51.536;11.884;2023-04-25T02:19:30;8.57;;;6.10;;
28834;SDS011;15969;51.536;11.884;2023-04-25T02:21:56;6.93;;;5.47;;
28834;SDS011;15969;51.536;11.884;2023-04-25T02:24:22;7.80;;;6.00;;
28834;SDS011;15969;51.536;11.884;2023-04-25T02:26:48;11.80;;;5.03;;
28834;SDS011;15969;51.536;11.884;2023-04-25T02:29:14;7.73;;;5.03;;
28834;SDS011;15969;51.536;11.884;2023-04-25T02:31:40;10.47;;;5.50;;
28834;SDS011;15969;51.536;11.884;2023-04-25T02:34:06;6.83;;;4.93;;
28834;SDS011;15969;51.536;11.884;2023-04-25T02:36:32;7.93;;;5.20;;
28834;SDS011;15969;51.536;11.884;2023-04-25T02:39:00;7.10;;;4.37;;
28834;SDS011;15969;51.536;11.884;2023-04-25T02:41:26;6.00;;;3.97;;
28834;SDS011;15969;51.536;11.884;2023-04-25T02:43:52;6.43;;;4.57;;
28834;SDS011;15969;51.536;11.884;2023-04-25T02:46:17;6.30;;;4.43;;
28834;SDS011;15969;51.536;11.884;2023-04-25T02:48:43;5.57;;;4.17;;
28834;SDS011;15969;51.536;11.884;2023-04-25T02:51:09;5.77;;;3.93;;
28834;SDS011;15969;51.536;11.884;2023-04-25T02:53:35;6.20;;;3.73;;
28834;SDS011;15969;51.536;11.884;2023-04-25T02:56:01;7.87;;;3.73;;
28834;SDS011;15969;51.536;11.884;2023-04-25T02:58:26;6.60;;;4.20;;
28834;SDS011;15969;51.536;11.884;2023-04-25T03:00:52;8.47;;;4.60;;
28834;SDS011;15969;51.536;11.884;2023-04-25T03:03:18;5.40;;;3.80;;
28834;SDS011;15969;51.536;11.884;2023-04-25T03:05:46;4.27;;;3.87;;
28834;SDS011;15969;51.536;11.884;2023-04-25T03:08:16;5.30;;;3.50;;
28834;SDS011;15969;51.536;11.884;2023-04-25T03:10:42;5.87;;;3.47;;
28834;SDS011;15969;51.536;11.884;2023-04-25T03:13:09;3.50;;;3.10;;
28834;SDS011;15969;51.536;11.884;2023-04-25T03:15:35;4.20;;;3.23;;
28834;SDS011;15969;51.536;11.884;2023-04-25T03:18:01;6.77;;;3.80;;
28834;SDS011;15969;51.536;11.884;2023-04-25T03:20:27;3.77;;;3.40;;
28834;SDS011;15969;51.536;11.884;2023-04-25T03:22:53;4.03;;;3.43;;
28834;SDS011;15969;51.536;11.884;2023-04-25T03:25:19;4.20;;;3.23;;
28834;SDS011;15969;51.536;11.884;2023-04-25T03:27:44;4.23;;;2.93;;
28834;SDS011;15969;51.536;11.884;2023-04-25T03:30:10;3.60;;;3.07;;
28834;SDS011;15969;51.536;11.884;2023-04-25T03:32:36;5.50;;;3.60;;
28834;SDS011;15969;51.536;11.884;2023-04-25T03:35:02;2.93;;;2.60;;
28834;SDS011;15969;51.536;11.884;2023-04-25T03:37:28;3.53;;;2.63;;
28834;SDS011;15969;51.536;11.884;2023-04-25T03:39:54;4.07;;;3.43;;
28834;SDS011;15969;51.536;11.884;2023-04-25T03:42:19;3.87;;;3.00;;
28834;SDS011;15969;51.536;11.884;2023-04-25T03:44:47;3.57;;;2.80;;
28834;SDS011;15969;51.536;11.884;2023-04-25T03:47:14;3.27;;;2.83;;
28834;SDS011;15969;51.536;11.884;2023-04-25T03:49:39;3.37;;;2.83;;
28834;SDS011;15969;51.536;11.884;2023-04-25T03:52:06;3.73;;;3.00;;
28834;SDS011;15969;51.536;11.884;2023-04-25T03:54:32;4.57;;;3.37;;
28834;SDS011;15969;51.536;11.884;2023-04-25T03:56:57;3.90;;;3.17;;
28834;SDS011;15969;51.536;11.884;2023-04-25T03:59:23;3.80;;;2.63;;
28834;SDS011;15969;51.536;11.884;2023-04-25T04:01:49;5.80;;;3.00;;
28834;SDS011;15969;51.536;11.884;2023-04-25T04:04:15;3.90;;;3.43;;
28834;SDS011;15969;51.536;11.884;2023-04-25T04:06:41;5.20;;;3.37;;
28834;SDS011;15969;51.536;11.884;2023-04-25T04:09:07;5.67;;;3.40;;
28834;SDS011;15969;51.536;11.884;2023-04-25T04:11:35;4.07;;;3.57;;
28834;SDS011;15969;51.536;11.884;2023-04-25T04:14:03;3.93;;;3.20;;
28834;SDS011;15969;51.536;11.884;2023-04-25T04:16:32;4.07;;;3.13;;
28834;SDS011;15969;51.536;11.884;2023-04-25T04:18:58;4.03;;;3.07;;
28834;SDS011;15969;51.536;11.884;2023-04-25T04:21:23;5.70;;;3.37;;
28834;SDS011;15969;51.536;11.884;2023-04-25T04:23:49;7.57;;;4.13;;
28834;SDS011;15969;51.536;11.884;2023-04-25T04:26:15;6.23;;;3.80;;
28834;SDS011;15969;51.536;11.884;2023-04-25T04:28:43;8.63;;;4.00;;
28834;SDS011;15969;51.536;11.884;2023-04-25T04:31:10;9.33;;;3.97;;
28834;SDS011;15969;51.536;11.884;2023-04-25T04:33:36;10.20;;;4.40;;
28834;SDS011;15969;51.536;11.884;2023-04-25T04:36:01;6.70;;;4.67;;
28834;SDS011;15969;51.536;11.884;2023-04-25T04:38:28;6.10;;;4.80;;
28834;SDS011;15969;51.536;11.884;2023-04-25T04:40:55;6.13;;;4.13;;
28834;SDS011;15969;51.536;11.884;2023-04-25T04:43:21;5.27;;;3.80;;
28834;SDS011;15969;51.536;11.884;2023-04-25T04:45:47;5.10;;;3.87;;
28834;SDS011;15969;51.536;11.884;2023-04-25T04:48:14;3.93;;;3.10;;
28834;SDS011;15969;51.536;11.884;2023-04-25T04:50:42;8.13;;;4.13;;
28834;SDS011;15969;51.536;11.884;2023-04-25T04:53:10;6.73;;;3.63;;
28834;SDS011;15969;51.536;11.884;2023-04-25T04:55:36;6.97;;;4.33;;
28834;SDS011;15969;51.536;11.884;2023-04-25T04:58:02;10.33;;;5.20;;
28834;SDS011;15969;51.536;11.884;2023-04-25T05:00:28;6.10;;;4.03;;
28834;SDS011;15969;51.536;11.884;2023-04-25T05:02:54;9.77;;;5.50;;
28834;SDS011;15969;51.536;11.884;2023-04-25T05:05:21;12.33;;;6.50;;
28834;SDS011;15969;51.536;11.884;2023-04-25T05:07:46;9.93;;;4.97;;
28834;SDS011;15969;51.536;11.884;2023-04-25T05:10:12;10.33;;;5.33;;
28834;SDS011;15969;51.536;11.884;2023-04-25T05:12:38;8.90;;;5.57;;
28834;SDS011;15969;51.536;11.884;2023-04-25T05:15:03;8.87;;;5.50;;
28834;SDS011;15969;51.536;11.884;2023-04-25T05:17:30;9.43;;;6.00;;
28834;SDS011;15969;51.536;11.884;2023-04-25T05:19:55;13.10;;;5.47;;
28834;SDS011;15969;51.536;11.884;2023-04-25T05:22:22;9.17;;;5.80;;
28834;SDS011;15969;51.536;11.884;2023-04-25T05:24:47;10.40;;;5.57;;
28834;SDS011;15969;51.536;11.884;2023-04-25T05:27:16;9.77;;;6.03;;
28834;SDS011;15969;51.536;11.884;2023-04-25T05:29:42;10.80;;;6.80;;
28834;SDS011;15969;51.536;11.884;2023-04-25T05:32:09;13.03;;;6.70;;
28834;SDS011;15969;51.536;11.884;2023-04-25T05:34:34;10.27;;;6.80;;
28834;SDS011;15969;51.536;11.884;2023-04-25T05:37:00;10.17;;;6.07;;
28834;SDS011;15969;51.536;11.884;2023-04-25T05:39:26;9.77;;;7.00;;
28834;SDS011;15969;51.536;11.884;2023-04-25T05:41:52;9.57;;;6.57;;
28834;SDS011;15969;51.536;11.884;2023-04-25T05:44:17;13.37;;;6.93;;
28834;SDS011;15969;51.536;11.884;2023-04-25T05:46:43;9.57;;;6.80;;
28834;SDS011;15969;51.536;11.884;2023-04-25T05:49:09;10.20;;;6.57;;
28834;SDS011;15969;51.536;11.884;2023-04-25T05:51:35;11.00;;;6.27;;
28834;SDS011;15969;51.536;11.884;2023-04-25T05:54:00;11.73;;;7.10;;
28834;SDS011;15969;51.536;11.884;2023-04-25T05:56:26;12.10;;;6.90;;
28834;SDS011;15969;51.536;11.884;2023-04-25T05:58:52;9.17;;;6.47;;
28834;SDS011;15969;51.536;11.884;2023-04-25T06:01:18;11.20;;;7.30;;
28834;SDS011;15969;51.536;11.884;2023-04-25T06:03:43;10.53;;;6.90;;
28834;SDS011;15969;51.536;11.884;2023-04-25T06:06:09;10.43;;;6.80;;
28834;SDS011;15969;51.536;11.884;2023-04-25T06:08:36;8.03;;;6.67;;
28834;SDS011;15969;51.536;11.884;2023-04-25T06:11:03;12.83;;;7.70;;
28834;SDS011;15969;51.536;11.884;2023-04-25T06:13:29;14.73;;;8.03;;
28834;SDS011;15969;51.536;11.884;2023-04-25T06:15:55;13.37;;;7.47;;
28834;SDS011;15969;51.536;11.884;2023-04-25T06:18:20;12.30;;;7.33;;
28834;SDS011;15969;51.536;11.884;2023-04-25T06:20:46;10.57;;;6.77;;
28834;SDS011;15969;51.536;11.884;2023-04-25T06:23:12;9.83;;;6.73;;
28834;SDS011;15969;51.536;11.884;2023-04-25T06:25:37;12.83;;;6.57;;
28834;SDS011;15969;51.536;11.884;2023-04-25T06:28:03;12.70;;;7.30;;
28834;SDS011;15969;51.536;11.884;2023-04-25T06:30:29;9.23;;;7.00;;
28834;SDS011;15969;51.536;11.884;2023-04-25T06:32:55;10.27;;;7.07;;
28834;SDS011;15969;51.536;11.884;2023-04-25T06:35:20;10.20;;;6.70;;
28834;SDS011;15969;51.536;11.884;2023-04-25T06:37:46;10.40;;;7.37;;
28834;SDS011;15969;51.536;11.884;2023-04-25T06:40:12;9.37;;;7.70;;
28834;SDS011;15969;51.536;11.884;2023-04-25T06:42:37;10.47;;;6.80;;
28834;SDS011;15969;51.536;11.884;2023-04-25T06:45:03;13.57;;;7.10;;
28834;SDS011;15969;51.536;11.884;2023-04-25T06:47:30;10.80;;;4.37;;
28834;SDS011;15969;51.536;11.884;2023-04-25T06:49:55;3.53;;;2.47;;
28834;SDS011;15969;51.536;11.884;2023-04-25T06:52:21;8.63;;;3.17;;
28834;SDS011;15969;51.536;11.884;2023-04-25T06:54:47;8.77;;;2.73;;
28834;SDS011;15969;51.536;11.884;2023-04-25T06:57:12;5.80;;;2.90;;
28834;SDS011;15969;51.536;11.884;2023-04-25T06:59:38;8.30;;;2.43;;
28834;SDS011;15969;51.536;11.884;2023-04-25T07:02:04;4.53;;;2.50;;
28834;SDS011;15969;51.536;11.884;2023-04-25T07:04:30;7.40;;;2.50;;
28834;SDS011;15969;51.536;11.884;2023-04-25T07:06:56;12.87;;;2.63;;
28834;SDS011;15969;51.536;11.884;2023-04-25T07:09:22;7.70;;;2.80;;
28834;SDS011;15969;51.536;11.884;2023-04-25T07:11:48;6.60;;;2.87;;
28834;SDS011;15969;51.536;11.884;2023-04-25T07:14:13;5.33;;;2.50;;
28834;SDS011;15969;51.536;11.884;2023-04-25T07:16:39;6.30;;;2.73;;
28834;SDS011;15969;51.536;11.884;2023-04-25T07:19:05;9.13;;;2.90;;
28834;SDS011;15969;51.536;11.884;2023-04-25T07:21:31;6.97;;;2.57;;
28834;SDS011;15969;51.536;11.884;2023-04-25T07:23:57;7.47;;;3.13;;
28834;SDS011;15969;51.536;11.884;2023-04-25T07:26:23;10.07;;;2.90;;
28834;SDS011;15969;51.536;11.884;2023-04-25T07:28:49;11.03;;;3.63;;
28834;SDS011;15969;51.536;11.884;2023-04-25T07:31:16;7.90;;;2.60;;
28834;SDS011;15969;51.536;11.884;2023-04-25T07:33:43;11.03;;;3.80;;
28834;SDS011;15969;51.536;11.884;2023-04-25T07:36:10;13.77;;;3.83;;
28834;SDS011;15969;51.536;11.884;2023-04-25T07:38:37;16.80;;;3.60;;
28834;SDS011;15969;51.536;11.884;2023-04-25T07:41:03;11.67;;;3.20;;
28834;SDS011;15969;51.536;11.884;2023-04-25T07:43:29;13.93;;;3.57;;
28834;SDS011;15969;51.536;11.884;2023-04-25T07:45:55;11.27;;;3.03;;
28834;SDS011;15969;51.536;11.884;2023-04-25T07:48:22;9.67;;;2.80;;
28834;SDS011;15969;51.536;11.884;2023-04-25T07:50:47;13.20;;;3.63;;
28834;SDS011;15969;51.536;11.884;2023-04-25T07:53:13;11.03;;;3.43;;
28834;SDS011;15969;51.536;11.884;2023-04-25T07:55:39;13.33;;;3.23;;
28834;SDS011;15969;51.536;11.884;2023-04-25T07:58:08;8.93;;;3.17;;
28834;SDS011;15969;51.536;11.884;2023-04-25T08:00:35;10.63;;;3.13;;
28834;SDS011;15969;51.536;11.884;2023-04-25T08:03:01;7.00;;;2.97;;
28834;SDS011;15969;51.536;11.884;2023-04-25T08:05:27;11.63;;;3.33;;
28834;SDS011;15969;51.536;11.884;2023-04-25T08:07:53;9.87;;;3.57;;
28834;SDS011;15969;51.536;11.884;2023-04-25T08:10:19;16.17;;;3.97;;
28834;SDS011;15969;51.536;11.884;2023-04-25T08:12:45;17.50;;;4.87;;
28834;SDS011;15969;51.536;11.884;2023-04-25T08:15:11;16.30;;;3.67;;
28834;SDS011;15969;51.536;11.884;2023-04-25T08:17:38;11.90;;;3.43;;
28834;SDS011;15969;51.536;11.884;2023-04-25T08:20:04;14.80;;;4.50;;
28834;SDS011;15969;51.536;11.884;2023-04-25T08:22:31;13.90;;;3.80;;
28834;SDS011;15969;51.536;11.884;2023-04-25T08:24:56;11.33;;;4.00;;
28834;SDS011;15969;51.536;11.884;2023-04-25T08:27:22;14.77;;;4.40;;
28834;SDS011;15969;51.536;11.884;2023-04-25T08:29:48;15.53;;;4.53;;
28834;SDS011;15969;51.536;11.884;2023-04-25T08:32:15;10.90;;;3.97;;
28834;SDS011;15969;51.536;11.884;2023-04-25T08:34:41;13.23;;;4.23;;
28834;SDS011;15969;51.536;11.884;2023-04-25T08:37:08;19.17;;;5.27;;
28834;SDS011;15969;51.536;11.884;2023-04-25T08:39:34;14.87;;;4.63;;
28834;SDS011;15969;51.536;11.884;2023-04-25T08:42:02;14.47;;;4.70;;
28834;SDS011;15969;51.536;11.884;2023-04-25T08:44:35;12.50;;;5.07;;
28834;SDS011;15969;51.536;11.884;2023-04-25T08:47:04;16.93;;;5.50;;
28834;SDS011;15969;51.536;11.884;2023-04-25T08:49:31;16.80;;;4.87;;
28834;SDS011;15969;51.536;11.884;2023-04-25T08:52:03;15.53;;;5.10;;
28834;SDS011;15969;51.536;11.884;2023-04-25T08:54:31;15.40;;;5.00;;
28834;SDS011;15969;51.536;11.884;2023-04-25T08:56:59;10.27;;;5.23;;
28834;SDS011;15969;51.536;11.884;2023-04-25T08:59:27;14.27;;;5.53;;
28834;SDS011;15969;51.536;11.884;2023-04-25T09:01:53;14.60;;;5.33;;
28834;SDS011;15969;51.536;11.884;2023-04-25T09:04:19;16.83;;;6.63;;
28834;SDS011;15969;51.536;11.884;2023-04-25T09:06:46;19.83;;;6.70;;
28834;SDS011;15969;51.536;11.884;2023-04-25T09:09:12;16.73;;;6.03;;
28834;SDS011;15969;51.536;11.884;2023-04-25T09:11:38;16.33;;;6.30;;
28834;SDS011;15969;51.536;11.884;2023-04-25T09:14:12;19.47;;;6.17;;
28834;SDS011;15969;51.536;11.884;2023-04-25T09:19:27;17.27;;;6.43;;
28834;SDS011;15969;51.536;11.884;2023-04-25T09:22:01;11.47;;;6.30;;
28834;SDS011;15969;51.536;11.884;2023-04-25T09:24:42;13.50;;;6.27;;
28834;SDS011;15969;51.536;11.884;2023-04-25T09:27:11;18.07;;;6.03;;
28834;SDS011;15969;51.536;11.884;2023-04-25T09:29:42;14.30;;;5.60;;
28834;SDS011;15969;51.536;11.884;2023-04-25T09:32:18;11.90;;;4.87;;
28834;SDS011;15969;51.536;11.884;2023-04-25T09:34:52;15.57;;;5.37;;
28834;SDS011;15969;51.536;11.884;2023-04-25T09:37:24;12.13;;;4.40;;
28834;SDS011;15969;51.536;11.884;2023-04-25T09:39:55;12.47;;;4.47;;
28834;SDS011;15969;51.536;11.884;2023-04-25T09:42:27;10.20;;;5.00;;
28834;SDS011;15969;51.536;11.884;2023-04-25T09:44:56;13.20;;;4.77;;
28834;SDS011;15969;51.536;11.884;2023-04-25T09:47:23;11.00;;;4.33;;
28834;SDS011;15969;51.536;11.884;2023-04-25T09:49:50;12.80;;;4.60;;
28834;SDS011;15969;51.536;11.884;2023-04-25T09:52:18;13.87;;;5.27;;
28834;SDS011;15969;51.536;11.884;2023-04-25T09:54:46;12.67;;;4.53;;
28834;SDS011;15969;51.536;11.884;2023-04-25T09:57:14;14.67;;;4.77;;
28834;SDS011;15969;51.536;11.884;2023-04-25T09:59:43;12.17;;;4.23;;
28834;SDS011;15969;51.536;11.884;2023-04-25T10:02:20;11.27;;;3.33;;
28834;SDS011;15969;51.536;11.884;2023-04-25T10:04:51;10.63;;;2.87;;
28834;SDS011;15969;51.536;11.884;2023-04-25T10:07:20;12.97;;;4.60;;
28834;SDS011;15969;51.536;11.884;2023-04-25T10:09:54;15.53;;;6.33;;
28834;SDS011;15969;51.536;11.884;2023-04-25T10:12:26;15.37;;;6.20;;
28834;SDS011;15969;51.536;11.884;2023-04-25T10:14:52;13.83;;;5.53;;
28834;SDS011;15969;51.536;11.884;2023-04-25T10:17:19;11.57;;;5.67;;
28834;SDS011;15969;51.536;11.884;2023-04-25T10:19:46;11.57;;;5.23;;
28834;SDS011;15969;51.536;11.884;2023-04-25T10:22:20;12.47;;;4.70;;
28834;SDS011;15969;51.536;11.884;2023-04-25T10:24:55;12.90;;;4.70;;
28834;SDS011;15969;51.536;11.884;2023-04-25T10:27:21;12.93;;;4.63;;
28834;SDS011;15969;51.536;11.884;2023-04-25T10:29:59;12.40;;;4.30;;
28834;SDS011;15969;51.536;11.884;2023-04-25T10:32:44;8.57;;;3.70;;
28834;SDS011;15969;51.536;11.884;2023-04-25T10:35:14;14.77;;;3.90;;
28834;SDS011;15969;51.536;11.884;2023-04-25T10:38:05;12.27;;;4.03;;
28834;SDS011;15969;51.536;11.884;2023-04-25T10:40:35;9.63;;;3.63;;
28834;SDS011;15969;51.536;11.884;2023-04-25T10:46:00;11.00;;;2.53;;
28834;SDS011;15969;51.536;11.884;2023-04-25T10:48:26;11.13;;;3.30;;
28834;SDS011;15969;51.536;11.884;2023-04-25T10:51:11;11.13;;;3.33;;
28834;SDS011;15969;51.536;11.884;2023-04-25T10:56:20;10.60;;;3.00;;
28834;SDS011;15969;51.536;11.884;2023-04-25T10:59:07;9.37;;;2.43;;
28834;SDS011;15969;51.536;11.884;2023-04-25T11:01:39;7.07;;;2.83;;
28834;SDS011;15969;51.536;11.884;2023-04-25T11:04:23;13.70;;;3.00;;
28834;SDS011;15969;51.536;11.884;2023-04-25T11:09:28;4.70;;;2.27;;
28834;SDS011;15969;51.536;11.884;2023-04-25T11:11:55;8.10;;;2.90;;
28834;SDS011;15969;51.536;11.884;2023-04-25T11:14:23;12.93;;;3.40;;
28834;SDS011;15969;51.536;11.884;2023-04-25T11:16:56;7.17;;;2.50;;
28834;SDS011;15969;51.536;11.884;2023-04-25T11:19:23;9.70;;;2.93;;
28834;SDS011;15969;51.536;11.884;2023-04-25T11:21:50;8.43;;;2.40;;
28834;SDS011;15969;51.536;11.884;2023-04-25T11:24:30;7.33;;;2.43;;
28834;SDS011;15969;51.536;11.884;2023-04-25T11:26:57;9.17;;;2.50;;
28834;SDS011;15969;51.536;11.884;2023-04-25T11:29:27;10.33;;;2.80;;
28834;SDS011;15969;51.536;11.884;2023-04-25T11:31:57;7.43;;;2.83;;
28834;SDS011;15969;51.536;11.884;2023-04-25T11:34:32;7.03;;;2.30;;
28834;SDS011;15969;51.536;11.884;2023-04-25T11:36:59;6.23;;;2.20;;
28834;SDS011;15969;51.536;11.884;2023-04-25T11:39:26;7.90;;;2.27;;
28834;SDS011;15969;51.536;11.884;2023-04-25T11:41:53;8.17;;;2.40;;
28834;SDS011;15969;51.536;11.884;2023-04-25T11:44:19;8.60;;;2.40;;
28834;SDS011;15969;51.536;11.884;2023-04-25T11:46:46;9.87;;;2.67;;
28834;SDS011;15969;51.536;11.884;2023-04-25T11:49:15;7.13;;;2.30;;
28834;SDS011;15969;51.536;11.884;2023-04-25T11:51:43;5.87;;;2.20;;
28834;SDS011;15969;51.536;11.884;2023-04-25T11:54:11;9.73;;;2.40;;
28834;SDS011;15969;51.536;11.884;2023-04-25T11:56:37;8.67;;;1.97;;
28834;SDS011;15969;51.536;11.884;2023-04-25T11:59:07;7.10;;;2.30;;
28834;SDS011;15969;51.536;11.884;2023-04-25T12:01:34;3.53;;;1.77;;
28834;SDS011;15969;51.536;11.884;2023-04-25T12:04:18;4.33;;;2.30;;
28834;SDS011;15969;51.536;11.884;2023-04-25T12:06:45;5.37;;;1.47;;
28834;SDS011;15969;51.536;11.884;2023-04-25T12:09:13;3.93;;;1.10;;
28834;SDS011;15969;51.536;11.884;2023-04-25T12:11:56;4.87;;;1.83;;
28834;SDS011;15969;51.536;11.884;2023-04-25T12:14:24;6.10;;;1.90;;
28834;SDS011;15969;51.536;11.884;2023-04-25T12:16:55;6.43;;;1.83;;
28834;SDS011;15969;51.536;11.884;2023-04-25T12:19:25;4.90;;;1.60;;
28834;SDS011;15969;51.536;11.884;2023-04-25T12:21:58;6.13;;;1.60;;
28834;SDS011;15969;51.536;11.884;2023-04-25T12:24:26;4.07;;;1.57;;
28834;SDS011;15969;51.536;11.884;2023-04-25T12:29:30;4.17;;;1.57;;
28834;SDS011;15969;51.536;11.884;2023-04-25T12:31:57;5.70;;;1.70;;
28834;SDS011;15969;51.536;11.884;2023-04-25T12:34:24;6.70;;;1.77;;
28834;SDS011;15969;51.536;11.884;2023-04-25T12:36:50;4.40;;;1.70;;
28834;SDS011;15969;51.536;11.884;2023-04-25T12:41:50;4.63;;;1.67;;
28834;SDS011;15969;51.536;11.884;2023-04-25T12:44:18;4.57;;;1.97;;
28834;SDS011;15969;51.536;11.884;2023-04-25T12:46:45;4.40;;;1.87;;
28834;SDS011;15969;51.536;11.884;2023-04-25T12:49:11;8.97;;;2.17;;
28834;SDS011;15969;51.536;11.884;2023-04-25T12:51:37;5.17;;;1.90;;
28834;SDS011;15969;51.536;11.884;2023-04-25T12:54:04;8.30;;;2.17;;
28834;SDS011;15969;51.536;11.884;2023-04-25T12:56:32;5.97;;;2.07;;
28834;SDS011;15969;51.536;11.884;2023-04-25T12:58:58;5.87;;;2.00;;
28834;SDS011;15969;51.536;11.884;2023-04-25T13:01:24;9.60;;;2.30;;
28834;SDS011;15969;51.536;11.884;2023-04-25T13:03:51;6.23;;;2.13;;
28834;SDS011;15969;51.536;11.884;2023-04-25T13:06:17;4.43;;;1.57;;
28834;SDS011;15969;51.536;11.884;2023-04-25T13:08:45;5.73;;;1.87;;
28834;SDS011;15969;51.536;11.884;2023-04-25T13:11:10;4.67;;;1.60;;
28834;SDS011;15969;51.536;11.884;2023-04-25T13:13:37;4.00;;;1.60;;
28834;SDS011;15969;51.536;11.884;2023-04-25T13:16:06;4.20;;;1.50;;
28834;SDS011;15969;51.536;11.884;2023-04-25T13:18:33;6.70;;;1.60;;
28834;SDS011;15969;51.536;11.884;2023-04-25T13:20:59;3.87;;;1.80;;
28834;SDS011;15969;51.536;11.884;2023-04-25T13:23:25;6.33;;;1.50;;
28834;SDS011;15969;51.536;11.884;2023-04-25T13:25:52;3.30;;;1.57;;
28834;SDS011;15969;51.536;11.884;2023-04-25T13:28:20;4.60;;;1.63;;
28834;SDS011;15969;51.536;11.884;2023-04-25T13:30:46;3.73;;;2.00;;
28834;SDS011;15969;51.536;11.884;2023-04-25T13:33:12;5.20;;;2.00;;
28834;SDS011;15969;51.536;11.884;2023-04-25T13:35:39;4.73;;;2.00;;
28834;SDS011;15969;51.536;11.884;2023-04-25T13:38:05;5.33;;;1.57;;
28834;SDS011;15969;51.536;11.884;2023-04-25T13:40:31;4.13;;;1.77;;
28834;SDS011;15969;51.536;11.884;2023-04-25T13:42:57;4.43;;;1.80;;
28834;SDS011;15969;51.536;11.884;2023-04-25T13:45:23;4.30;;;1.60;;
28834;SDS011;15969;51.536;11.884;2023-04-25T13:47:49;3.00;;;1.80;;
28834;SDS011;15969;51.536;11.884;2023-04-25T13:50:14;7.20;;;1.80;;
28834;SDS011;15969;51.536;11.884;2023-04-25T13:52:41;8.37;;;4.10;;
28834;SDS011;15969;51.536;11.884;2023-04-25T13:55:07;3.17;;;1.93;;
28834;SDS011;15969;51.536;11.884;2023-04-25T13:57:33;4.80;;;2.50;;
28834;SDS011;15969;51.536;11.884;2023-04-25T14:00:00;3.27;;;1.70;;
28834;SDS011;15969;51.536;11.884;2023-04-25T14:02:31;5.13;;;1.87;;
28834;SDS011;15969;51.536;11.884;2023-04-25T14:04:57;6.33;;;2.10;;
28834;SDS011;15969;51.536;11.884;2023-04-25T14:07:23;7.33;;;2.07;;
28834;SDS011;15969;51.536;11.884;2023-04-25T14:09:50;3.77;;;1.90;;
28834;SDS011;15969;51.536;11.884;2023-04-25T14:12:15;4.80;;;1.70;;
28834;SDS011;15969;51.536;11.884;2023-04-25T14:14:41;4.47;;;2.23;;
28834;SDS011;15969;51.536;11.884;2023-04-25T14:17:08;6.20;;;2.33;;
28834;SDS011;15969;51.536;11.884;2023-04-25T14:19:34;5.70;;;1.90;;
28834;SDS011;15969;51.536;11.884;2023-04-25T14:21:59;6.80;;;1.90;;
28834;SDS011;15969;51.536;11.884;2023-04-25T14:24:25;7.63;;;3.20;;
28834;SDS011;15969;51.536;11.884;2023-04-25T14:26:51;7.07;;;2.80;;
28834;SDS011;15969;51.536;11.884;2023-04-25T14:29:16;7.23;;;2.33;;
28834;SDS011;15969;51.536;11.884;2023-04-25T14:31:42;4.00;;;2.17;;
28834;SDS011;15969;51.536;11.884;2023-04-25T14:34:08;5.00;;;2.43;;
28834;SDS011;15969;51.536;11.884;2023-04-25T14:36:34;4.80;;;1.90;;
28834;SDS011;15969;51.536;11.884;2023-04-25T14:39:01;11.73;;;2.30;;
28834;SDS011;15969;51.536;11.884;2023-04-25T14:41:26;7.00;;;1.93;;
28834;SDS011;15969;51.536;11.884;2023-04-25T14:43:52;7.43;;;1.97;;
28834;SDS011;15969;51.536;11.884;2023-04-25T14:46:18;15.97;;;13.40;;